createdAt,value
2024-04-18T00:01:08.961Z,1.76
2024-04-18T00:16:08.930Z,1.80
2024-04-18T00:31:09.321Z,1.71
2024-04-18T00:46:09.767Z,1.55
2024-04-18T01:01:10.219Z,1.28
2024-04-18T01:16:10.733Z,1.26
2024-04-18T01:31:11.105Z,1.42
2024-04-18T01:46:11.504Z,1.71
2024-04-18T02:01:12.061Z,1.87
2024-04-18T02:16:12.526Z,1.89
2024-04-18T02:31:13.023Z,2.02
2024-04-18T02:46:13.804Z,1.94
2024-04-18T03:01:14.083Z,2.19
2024-04-18T03:16:14.647Z,2.31
2024-04-18T03:31:15.583Z,2.38
2024-04-18T03:46:15.987Z,2.48
2024-04-18T04:01:16.498Z,2.51
2024-04-18T04:16:16.780Z,2.59
2024-04-18T04:31:17.680Z,2.70
2024-04-18T04:46:18.454Z,2.63
2024-04-18T05:01:19.406Z,2.55
2024-04-18T05:16:19.607Z,2.45
2024-04-18T05:31:20.343Z,2.41
2024-04-18T05:46:21.119Z,2.04
2024-04-18T06:01:21.956Z,1.97
2024-04-18T06:16:22.109Z,2.37
2024-04-18T06:31:22.819Z,2.63
2024-04-18T06:46:23.504Z,3.12
2024-04-18T07:01:24.242Z,3.50
2024-04-18T07:16:24.854Z,3.92
2024-04-18T07:31:25.608Z,4.14
2024-04-18T07:46:26.214Z,4.16
2024-04-18T08:01:28.353Z,4.24
2024-04-18T08:16:27.660Z,4.50
2024-04-18T08:31:28.363Z,4.42
2024-04-18T08:46:28.946Z,4.69
2024-04-18T09:01:29.530Z,4.70
2024-04-18T09:16:30.074Z,5.20
2024-04-18T09:31:37.954Z,4.79
2024-04-18T09:46:32.472Z,5.35
2024-04-18T10:01:31.727Z,6.54
2024-04-18T10:16:32.623Z,6.44
2024-04-18T10:31:33.129Z,7.72
2024-04-18T10:46:33.432Z,7.67
2024-04-18T11:01:33.885Z,6.98
2024-04-18T11:16:34.335Z,8.29
2024-04-18T11:31:35.351Z,8.69
2024-04-18T11:46:36.296Z,9.68
